createdAt,value
2018-04-26T00:01:30.077Z,13.50
2018-04-26T00:03:57.751Z,13.60
2018-04-26T00:06:26.173Z,13.40
2018-04-26T00:08:53.878Z,13.40
2018-04-26T00:11:22.376Z,13.30
2018-04-26T00:13:50.071Z,13.30
2018-04-26T00:16:17.779Z,13.20
2018-04-26T00:18:46.237Z,13.20
2018-04-26T00:21:13.904Z,13.20
2018-04-26T00:23:41.574Z,13.30
2018-04-26T00:26:10.045Z,13.20
2018-04-26T00:28:37.679Z,13.20
2018-04-26T00:31:05.359Z,13.10
2018-04-26T00:33:33.038Z,13.10
2018-04-26T00:36:00.649Z,12.90
2018-04-26T00:38:28.345Z,12.80
2018-04-26T00:40:56.022Z,12.80
2018-04-26T00:43:24.436Z,12.50
2018-04-26T00:45:52.114Z,12.50
2018-04-26T00:48:19.793Z,12.50
2018-04-26T00:50:47.460Z,12.40
2018-04-26T00:53:15.142Z,12.40
2018-04-26T00:55:43.563Z,12.50
2018-04-26T00:58:11.964Z,12.70
2018-04-26T01:00:39.659Z,12.70
2018-04-26T01:03:08.126Z,12.60
2018-04-26T01:05:35.751Z,12.60
2018-04-26T01:08:03.429Z,12.60
2018-04-26T01:10:31.100Z,12.60
2018-04-26T01:12:58.747Z,12.60
2018-04-26T01:15:26.458Z,12.70
2018-04-26T01:17:54.139Z,12.70
2018-04-26T01:20:21.792Z,12.70
2018-04-26T01:22:49.486Z,12.70
2018-04-26T01:25:17.163Z,12.80
2018-04-26T01:27:44.856Z,12.80
2018-04-26T01:30:12.587Z,12.80
2018-04-26T01:32:40.286Z,12.70
2018-04-26T01:35:07.999Z,12.80
2018-04-26T01:37:47.544Z,12.80
2018-04-26T01:40:15.236Z,12.80
2018-04-26T01:42:43.659Z,12.70
2018-04-26T01:45:11.330Z,12.70
2018-04-26T01:47:38.996Z,12.60
2018-04-26T01:50:06.639Z,12.60
2018-04-26T01:52:34.307Z,12.60
2018-04-26T01:55:01.992Z,12.70
2018-04-26T01:57:29.636Z,12.70
2018-04-26T01:59:57.329Z,12.60
2018-04-26T02:02:25.778Z,12.60
2018-04-26T02:04:53.413Z,12.60
2018-04-26T02:07:21.092Z,12.60
2018-04-26T02:09:48.754Z,12.60
2018-04-26T02:12:16.404Z,12.60
2018-04-26T02:14:44.070Z,12.60
2018-04-26T02:17:11.795Z,12.60
2018-04-26T02:19:39.489Z,12.60
2018-04-26T02:22:07.144Z,12.60
2018-04-26T02:24:34.811Z,12.60
2018-04-26T02:27:02.456Z,12.60
2018-04-26T02:29:30.131Z,12.60
2018-04-26T02:31:57.804Z,12.50
2018-04-26T02:34:25.443Z,12.50
2018-04-26T02:36:53.108Z,12.50
2018-04-26T02:39:20.775Z,12.40
2018-04-26T02:41:48.424Z,12.40
2018-04-26T02:44:16.094Z,12.30
2018-04-26T02:46:43.764Z,12.20
2018-04-26T02:49:11.415Z,12.30
2018-04-26T02:51:39.094Z,12.20
2018-04-26T02:54:06.758Z,12.20
2018-04-26T02:56:34.412Z,12.10
2018-04-26T02:59:02.082Z,12.10
2018-04-26T03:01:29.764Z,12.00
2018-04-26T03:03:58.165Z,11.90
2018-04-26T03:06:25.850Z,11.90
2018-04-26T03:08:53.534Z,11.90
2018-04-26T03:11:21.179Z,11.80
2018-04-26T03:13:48.935Z,11.70
2018-04-26T03:16:16.626Z,11.70
2018-04-26T03:18:44.260Z,11.70
2018-04-26T03:21:11.950Z,11.60
2018-04-26T03:23:40.402Z,11.60
2018-04-26T03:26:08.035Z,11.60
2018-04-26T03:28:35.752Z,11.60
2018-04-26T03:31:04.229Z,11.60
2018-04-26T03:33:32.629Z,11.60
2018-04-26T03:36:00.350Z,11.60
2018-04-26T03:38:28.043Z,11.60
2018-04-26T03:40:56.440Z,11.60
2018-04-26T03:43:24.109Z,11.60
2018-04-26T03:45:51.819Z,11.60
2018-04-26T03:48:20.226Z,11.70
2018-04-26T03:50:47.925Z,11.70
2018-04-26T03:53:15.634Z,11.70
2018-04-26T03:55:44.043Z,11.60
2018-04-26T03:58:11.712Z,11.60
2018-04-26T04:00:51.229Z,11.60
2018-04-26T04:03:30.759Z,11.60
2018-04-26T04:06:17.085Z,11.60
2018-04-26T04:08:44.785Z,11.60
2018-04-26T04:11:12.482Z,11.50
2018-04-26T04:13:40.106Z,11.50
2018-04-26T04:16:07.777Z,11.40
2018-04-26T04:18:36.215Z,11.30
2018-04-26T04:21:03.856Z,11.30
2018-04-26T04:23:31.618Z,11.30
2018-04-26T04:26:00.016Z,11.20
2018-04-26T04:28:27.682Z,11.20
2018-04-26T04:30:56.259Z,11.30
2018-04-26T04:33:23.989Z,11.20
2018-04-26T04:35:51.623Z,11.30
2018-04-26T04:38:20.068Z,11.30
2018-04-26T04:40:47.735Z,11.30
2018-04-26T04:43:15.371Z,11.20
2018-04-26T04:45:43.035Z,11.20
2018-04-26T04:48:10.711Z,11.20
2018-04-26T04:50:38.322Z,11.20
2018-04-26T04:53:05.972Z,11.10
2018-04-26T04:55:34.398Z,11.10
2018-04-26T04:58:02.027Z,11.10
2018-04-26T05:00:29.695Z,11.10
2018-04-26T05:02:57.365Z,11.00
2018-04-26T05:05:25.006Z,11.00
2018-04-26T05:07:52.678Z,11.00
2018-04-26T05:10:20.352Z,10.90
2018-04-26T05:12:48.015Z,10.90
2018-04-26T05:15:15.677Z,10.90
2018-04-26T05:17:43.350Z,10.80
2018-04-26T05:20:11.004Z,10.90
2018-04-26T05:22:38.663Z,10.80
2018-04-26T05:25:06.349Z,10.80
2018-04-26T05:27:34.031Z,10.70
2018-04-26T05:30:02.502Z,10.50
2018-04-26T05:32:30.187Z,10.40
2018-04-26T05:34:57.831Z,10.30
2018-04-26T05:37:26.265Z,10.10
2018-04-26T05:39:53.942Z,10.00
2018-04-26T05:42:21.562Z,9.90
2018-04-26T05:44:49.238Z,9.80
2018-04-26T05:47:16.975Z,9.80
2018-04-26T05:49:44.591Z,9.70
2018-04-26T05:52:12.283Z,9.70
2018-04-26T05:54:39.947Z,9.70
2018-04-26T05:57:07.574Z,9.70
2018-04-26T05:59:35.243Z,9.70
2018-04-26T06:02:02.905Z,9.70
2018-04-26T06:04:30.571Z,9.70
2018-04-26T06:06:58.233Z,9.80
2018-04-26T06:09:26.705Z,9.60
2018-04-26T06:11:55.145Z,9.60
2018-04-26T06:14:23.023Z,9.50
2018-04-26T06:16:50.715Z,9.40
2018-04-26T06:19:18.364Z,9.30
2018-04-26T06:21:46.016Z,9.20
2018-04-26T06:24:13.728Z,9.10
2018-04-26T06:26:41.364Z,9.00
2018-04-26T06:29:09.815Z,9.00
2018-04-26T06:31:37.488Z,8.90
2018-04-26T06:34:05.893Z,9.00
2018-04-26T06:36:33.553Z,9.00
2018-04-26T06:39:01.271Z,9.10
2018-04-26T06:41:28.916Z,9.20
2018-04-26T06:43:56.567Z,9.30
2018-04-26T06:46:24.243Z,9.30
2018-04-26T06:48:51.886Z,9.40
2018-04-26T06:51:19.564Z,9.40
2018-04-26T06:53:47.239Z,9.50
2018-04-26T06:56:14.901Z,9.60
2018-04-26T06:58:42.608Z,9.70
2018-04-26T07:01:10.298Z,9.70
2018-04-26T07:03:38.046Z,9.80
2018-04-26T07:06:05.804Z,9.80
2018-04-26T07:08:33.460Z,9.70
2018-04-26T07:11:01.104Z,9.80
2018-04-26T07:13:28.783Z,9.80
2018-04-26T07:15:56.443Z,9.80
2018-04-26T07:18:24.078Z,9.90
2018-04-26T07:20:51.719Z,9.80
2018-04-26T07:23:20.190Z,9.80
2018-04-26T07:25:48.631Z,9.80
2018-04-26T07:28:16.354Z,9.80
2018-04-26T07:30:44.048Z,9.70
2018-04-26T07:33:11.671Z,9.70
2018-04-26T07:35:39.400Z,9.80
2018-04-26T07:38:07.062Z,9.80
2018-04-26T07:40:34.724Z,9.90
2018-04-26T07:43:02.387Z,10.00
2018-04-26T07:45:30.059Z,10.00
2018-04-26T07:47:57.729Z,10.10
2018-04-26T07:50:25.439Z,10.10
2018-04-26T07:52:53.118Z,10.20
2018-04-26T07:55:20.783Z,10.20
2018-04-26T07:57:48.447Z,10.20
2018-04-26T08:00:16.154Z,10.20
2018-04-26T08:02:43.792Z,10.20
2018-04-26T08:05:12.371Z,10.30
2018-04-26T08:07:40.809Z,10.40
2018-04-26T08:10:08.463Z,10.40
2018-04-26T08:12:36.136Z,10.50
2018-04-26T08:15:03.865Z,10.50
2018-04-26T08:17:31.495Z,10.50
2018-04-26T08:19:59.934Z,10.50
2018-04-26T08:22:27.615Z,10.50
2018-04-26T08:24:55.298Z,10.60
2018-04-26T08:27:22.968Z,10.60
2018-04-26T08:29:51.396Z,10.70
2018-04-26T08:32:19.065Z,10.70
2018-04-26T08:34:46.748Z,10.70
2018-04-26T08:37:14.440Z,10.70
2018-04-26T08:39:42.071Z,10.80
2018-04-26T08:42:10.519Z,10.90
2018-04-26T08:44:38.190Z,10.90
2018-04-26T08:47:05.822Z,10.90
2018-04-26T08:49:33.524Z,10.90
2018-04-26T08:52:01.938Z,11.00
2018-04-26T08:54:29.565Z,11.00
2018-04-26T08:56:57.315Z,11.10
2018-04-26T08:59:24.998Z,11.10
2018-04-26T09:01:52.630Z,11.10
2018-04-26T09:04:20.292Z,11.20
2018-04-26T09:06:48.000Z,11.20
2018-04-26T09:09:15.639Z,11.30
2018-04-26T09:11:43.292Z,11.30
2018-04-26T09:14:10.962Z,11.40
2018-04-26T09:16:38.609Z,11.60
2018-04-26T09:19:07.125Z,11.60
2018-04-26T09:21:34.780Z,11.50
2018-04-26T09:24:02.419Z,11.60
2018-04-26T09:26:30.100Z,11.70
2018-04-26T09:28:57.799Z,11.50
2018-04-26T09:31:25.440Z,11.50
2018-04-26T09:33:53.117Z,11.50
2018-04-26T09:36:20.789Z,11.40
2018-04-26T09:38:48.513Z,11.50
2018-04-26T09:41:16.148Z,11.50
2018-04-26T09:43:43.874Z,11.50
2018-04-26T09:46:11.531Z,11.40
2018-04-26T09:48:39.213Z,11.40
2018-04-26T09:51:07.646Z,11.20
2018-04-26T09:53:35.303Z,11.20
2018-04-26T09:56:02.966Z,11.20
2018-04-26T09:58:30.668Z,11.20
2018-04-26T10:00:58.349Z,11.10
2018-04-26T10:03:27.872Z,11.10
2018-04-26T10:05:57.436Z,11.20
2018-04-26T10:08:25.838Z,11.20
2018-04-26T10:10:54.363Z,11.20
2018-04-26T10:13:22.034Z,11.20
2018-04-26T10:15:49.671Z,11.30
2018-04-26T10:18:17.379Z,11.30
2018-04-26T10:20:45.816Z,11.30
2018-04-26T10:23:13.500Z,11.30
2018-04-26T10:25:41.185Z,11.30
2018-04-26T10:28:09.618Z,11.40
2018-04-26T10:30:37.258Z,11.40
2018-04-26T10:33:04.934Z,11.50
2018-04-26T10:35:32.602Z,11.50
2018-04-26T10:38:00.232Z,11.60
2018-04-26T10:40:27.890Z,11.60
2018-04-26T10:42:56.345Z,11.70
2018-04-26T10:45:23.978Z,11.70
2018-04-26T10:47:52.370Z,11.70
2018-04-26T10:50:20.794Z,11.70
2018-04-26T10:52:48.433Z,11.70
2018-04-26T10:55:16.126Z,11.70
2018-04-26T10:57:43.862Z,11.70
2018-04-26T11:00:11.569Z,11.80
2018-04-26T11:02:39.245Z,11.80
2018-04-26T11:05:06.966Z,11.70
2018-04-26T11:07:34.699Z,11.70
2018-04-26T11:10:02.377Z,11.70
2018-04-26T11:12:30.049Z,11.70
2018-04-26T11:14:57.701Z,11.60
2018-04-26T11:17:25.376Z,11.60
2018-04-26T11:19:53.044Z,11.60
2018-04-26T11:22:20.686Z,11.70
2018-04-26T11:24:48.355Z,11.70
2018-04-26T11:27:16.019Z,11.70
2018-04-26T11:29:43.666Z,11.80
2018-04-26T11:32:11.335Z,11.80
2018-04-26T11:34:39.008Z,11.80
2018-04-26T11:37:06.648Z,11.90
2018-04-26T11:39:34.308Z,11.90
2018-04-26T11:42:02.000Z,11.90
2018-04-26T11:44:29.624Z,12.00
2018-04-26T11:46:57.290Z,11.90
2018-04-26T11:49:24.965Z,11.90
2018-04-26T11:51:52.577Z,11.90
2018-04-26T11:54:21.009Z,12.00
2018-04-26T11:56:48.694Z,12.00
2018-04-26T11:59:16.361Z,11.90
2018-04-26T12:01:44.816Z,11.90
2018-04-26T12:04:12.486Z,11.90
2018-04-26T12:06:40.110Z,11.90
2018-04-26T12:09:08.776Z,11.90
2018-04-26T12:11:36.509Z,11.90
2018-04-26T12:14:04.934Z,11.90
2018-04-26T12:16:32.588Z,11.90
2018-04-26T12:19:00.257Z,12.00
2018-04-26T12:21:27.913Z,12.10
2018-04-26T12:23:55.595Z,12.20
2018-04-26T12:26:23.258Z,12.40
2018-04-26T12:28:50.901Z,12.40
2018-04-26T12:31:18.595Z,12.40
2018-04-26T12:33:47.085Z,12.40
2018-04-26T12:36:14.718Z,12.40
2018-04-26T12:38:42.397Z,12.40
2018-04-26T12:41:10.859Z,12.50
2018-04-26T12:43:38.498Z,12.50
2018-04-26T12:46:06.173Z,12.60
2018-04-26T12:48:33.852Z,12.60
2018-04-26T12:51:01.478Z,12.60
2018-04-26T12:53:29.143Z,12.60
2018-04-26T12:55:56.806Z,12.50
2018-04-26T12:58:24.467Z,12.50
2018-04-26T13:00:52.143Z,12.40
2018-04-26T13:03:19.817Z,12.40
2018-04-26T13:05:47.495Z,12.50
2018-04-26T13:08:15.179Z,12.40
2018-04-26T13:10:42.842Z,12.40
2018-04-26T13:13:10.475Z,12.40
2018-04-26T13:15:38.913Z,12.30
2018-04-26T13:18:06.580Z,12.30
2018-04-26T13:20:34.238Z,12.30
2018-04-26T13:23:01.906Z,12.30
2018-04-26T13:25:29.561Z,12.30
2018-04-26T13:27:57.186Z,12.30
2018-04-26T13:30:24.855Z,12.30
2018-04-26T13:32:52.523Z,12.40
2018-04-26T13:35:20.134Z,12.60
2018-04-26T13:37:48.568Z,12.80
2018-04-26T13:40:16.259Z,12.80
2018-04-26T13:42:44.677Z,12.80
2018-04-26T13:45:12.321Z,12.70
2018-04-26T13:47:39.982Z,12.90
2018-04-26T13:50:07.647Z,13.00
2018-04-26T13:52:35.339Z,13.10
2018-04-26T13:55:03.017Z,13.20
2018-04-26T13:57:30.656Z,13.20
2018-04-26T13:59:58.329Z,13.20
2018-04-26T14:02:25.997Z,13.10
2018-04-26T14:04:53.622Z,13.00
2018-04-26T14:07:21.309Z,13.10
2018-04-26T14:09:49.010Z,13.10
2018-04-26T14:12:17.498Z,12.90
2018-04-26T14:14:45.213Z,12.80
2018-04-26T14:17:12.881Z,12.80
2018-04-26T14:19:41.443Z,12.70
2018-04-26T14:22:09.119Z,12.80
2018-04-26T14:24:36.771Z,12.80
2018-04-26T14:27:04.412Z,12.70
2018-04-26T14:29:32.436Z,12.80
2018-04-26T14:32:00.080Z,12.80
2018-04-26T14:34:27.802Z,12.90
2018-04-26T14:36:55.454Z,12.90
2018-04-26T14:39:23.127Z,12.80
2018-04-26T14:41:50.793Z,12.90
2018-04-26T14:44:18.471Z,12.90
2018-04-26T14:46:46.128Z,13.00
2018-04-26T14:49:13.759Z,13.10
2018-04-26T14:51:41.430Z,13.10
2018-04-26T14:54:09.095Z,13.20
2018-04-26T14:56:36.718Z,13.10
2018-04-26T14:59:05.162Z,13.00
2018-04-26T15:01:32.826Z,13.00
2018-04-26T15:04:00.482Z,13.10
2018-04-26T15:06:28.162Z,13.00
2018-04-26T15:08:56.587Z,13.00
2018-04-26T15:11:24.225Z,12.90
2018-04-26T15:13:51.914Z,13.00
2018-04-26T15:16:19.574Z,13.30
2018-04-26T15:18:47.194Z,13.30
2018-04-26T15:21:14.854Z,13.30
2018-04-26T15:23:42.523Z,13.30
2018-04-26T15:26:10.158Z,13.20
2018-04-26T15:28:38.590Z,13.00
2018-04-26T15:31:06.348Z,13.00
2018-04-26T15:33:33.965Z,13.10
2018-04-26T15:36:02.405Z,12.90
2018-04-26T15:38:30.079Z,12.90
2018-04-26T15:40:57.737Z,12.80
2018-04-26T15:43:25.491Z,12.90
2018-04-26T15:45:53.177Z,12.90
2018-04-26T15:48:21.598Z,12.90
2018-04-26T15:50:52.234Z,12.90
2018-04-26T15:53:31.789Z,13.00
2018-04-26T15:56:16.160Z,12.90
2018-04-26T16:02:15.766Z,13.10
2018-04-26T16:04:55.211Z,13.00
2018-04-26T16:07:49.374Z,13.10
2018-04-26T16:10:29.006Z,13.00
2018-04-26T16:13:14.359Z,13.00
2018-04-26T16:15:59.525Z,13.00
2018-04-26T16:18:43.216Z,13.00
2018-04-26T16:21:28.443Z,13.10
2018-04-26T16:24:27.664Z,13.10
2018-04-26T16:27:24.993Z,13.00
2018-04-26T16:30:04.398Z,12.90
2018-04-26T16:32:43.783Z,12.80
2018-04-26T16:35:23.338Z,12.70
2018-04-26T16:38:08.493Z,12.60
2018-04-26T16:40:36.179Z,12.60
2018-04-26T16:43:03.876Z,12.60
2018-04-26T16:45:32.300Z,12.60
2018-04-26T16:47:59.968Z,12.60
2018-04-26T16:50:27.703Z,12.50
2018-04-26T16:52:55.336Z,12.50
2018-04-26T16:55:23.791Z,12.60
2018-04-26T16:57:51.480Z,12.60
2018-04-26T17:00:19.160Z,12.60
2018-04-26T17:02:46.829Z,12.50
2018-04-26T17:05:14.484Z,12.50
2018-04-26T17:07:42.111Z,12.50
2018-04-26T17:10:09.809Z,12.60
2018-04-26T17:12:37.483Z,12.60
2018-04-26T17:15:05.212Z,12.50
2018-04-26T17:17:32.868Z,12.50
2018-04-26T17:20:01.448Z,12.50
2018-04-26T17:22:29.948Z,12.50
2018-04-26T17:24:57.583Z,12.50
2018-04-26T17:27:26.042Z,12.40
2018-04-26T17:29:53.676Z,12.30
2018-04-26T17:32:21.341Z,12.30
2018-04-26T17:34:49.065Z,12.30
2018-04-26T17:37:17.443Z,12.20
2018-04-26T17:39:45.110Z,12.20
2018-04-26T17:42:12.771Z,12.20
2018-04-26T17:44:40.424Z,12.10
2018-04-26T17:47:08.086Z,12.20
2018-04-26T17:49:35.733Z,12.10
2018-04-26T17:52:03.465Z,12.10
2018-04-26T17:54:31.194Z,12.00
2018-04-26T17:56:58.970Z,12.00
2018-04-26T17:59:26.832Z,12.00
2018-04-26T18:01:55.507Z,11.80
2018-04-26T18:04:23.230Z,11.80
2018-04-26T18:06:50.972Z,11.70
2018-04-26T18:09:19.589Z,11.50
2018-04-26T18:11:47.510Z,11.50
2018-04-26T18:14:15.937Z,11.50
2018-04-26T18:16:43.823Z,11.50
2018-04-26T18:19:11.738Z,11.50
2018-04-26T18:21:40.221Z,11.50
2018-04-26T18:24:08.025Z,11.50
2018-04-26T18:26:36.093Z,11.50
2018-04-26T18:29:04.602Z,11.40
2018-04-26T18:31:32.370Z,11.40
2018-04-26T18:34:00.185Z,11.30
2018-04-26T18:36:28.036Z,11.30
2018-04-26T18:38:55.981Z,11.20
2018-04-26T18:41:24.415Z,11.10
2018-04-26T18:43:52.364Z,11.10
2018-04-26T18:46:20.261Z,11.10
2018-04-26T18:48:48.217Z,11.00
2018-04-26T18:51:16.184Z,11.00
2018-04-26T18:53:44.135Z,11.00
2018-04-26T18:56:12.016Z,11.00
2018-04-26T18:58:39.894Z,11.00
2018-04-26T19:01:07.815Z,11.00
2018-04-26T19:03:35.628Z,11.10
2018-04-26T19:06:03.596Z,11.00
2018-04-26T19:08:31.496Z,11.00
2018-04-26T19:10:59.450Z,11.10
2018-04-26T19:13:27.343Z,11.10
2018-04-26T19:15:55.256Z,11.10
2018-04-26T19:18:24.089Z,11.10
2018-04-26T19:20:52.018Z,11.10
2018-04-26T19:23:19.928Z,11.10
2018-04-26T19:25:47.937Z,11.10
2018-04-26T19:28:15.796Z,11.10
2018-04-26T19:30:43.678Z,11.10
2018-04-26T19:33:11.551Z,11.10
2018-04-26T19:35:39.343Z,11.20
2018-04-26T19:38:07.288Z,11.10
2018-04-26T19:40:35.168Z,11.10
2018-04-26T19:43:02.933Z,11.10
2018-04-26T19:45:30.750Z,11.10
2018-04-26T19:47:59.371Z,11.10
2018-04-26T19:50:27.832Z,11.20
2018-04-26T19:52:55.583Z,11.20
2018-04-26T19:55:23.384Z,11.20
2018-04-26T19:57:51.846Z,11.20
2018-04-26T20:00:20.343Z,11.20
2018-04-26T20:02:48.037Z,11.20
2018-04-26T20:05:15.790Z,11.20
2018-04-26T20:07:44.226Z,11.20
2018-04-26T20:10:12.086Z,11.20
2018-04-26T20:12:39.803Z,11.20
2018-04-26T20:15:07.616Z,11.20
2018-04-26T20:17:35.283Z,11.20
2018-04-26T20:20:03.743Z,11.20
2018-04-26T20:22:31.406Z,11.20
2018-04-26T20:24:59.091Z,11.20
2018-04-26T20:27:27.493Z,11.10
2018-04-26T20:29:55.161Z,11.20
2018-04-26T20:32:24.003Z,11.10
2018-04-26T20:34:51.965Z,11.20
2018-04-26T20:37:19.868Z,11.20
2018-04-26T20:39:48.609Z,11.20
2018-04-26T20:42:17.240Z,11.20
2018-04-26T20:44:48.834Z,11.20
2018-04-26T20:47:17.629Z,11.20
2018-04-26T20:49:46.159Z,11.10
2018-04-26T20:52:14.086Z,11.10
2018-04-26T20:54:42.780Z,11.10
2018-04-26T20:57:10.576Z,11.10
2018-04-26T20:59:38.288Z,11.10
2018-04-26T21:02:23.800Z,11.00
2018-04-26T21:04:52.057Z,10.90
2018-04-26T21:07:20.882Z,10.80
2018-04-26T21:09:48.819Z,10.80
2018-04-26T21:12:17.435Z,10.60
2018-04-26T21:14:45.194Z,10.60
2018-04-26T21:17:13.866Z,10.60
2018-04-26T21:19:41.698Z,10.50
2018-04-26T21:22:10.155Z,10.30
2018-04-26T21:24:39.814Z,10.20
2018-04-26T21:27:08.103Z,10.20
2018-04-26T21:29:36.345Z,10.10
2018-04-26T21:32:05.301Z,9.70
2018-04-26T21:34:33.516Z,9.70
2018-04-26T21:37:01.442Z,9.60
2018-04-26T21:39:29.708Z,9.40
2018-04-26T21:41:58.607Z,9.30
2018-04-26T21:44:26.525Z,9.20
2018-04-26T21:46:54.801Z,9.10
2018-04-26T21:49:22.961Z,9.00
2018-04-26T21:51:56.720Z,9.00
2018-04-26T21:54:30.436Z,8.90
2018-04-26T21:57:03.796Z,8.90
2018-04-26T21:59:37.362Z,8.80
2018-04-26T22:02:10.582Z,8.80
2018-04-26T22:04:39.166Z,8.70
2018-04-26T22:07:06.861Z,8.70
2018-04-26T22:09:34.487Z,8.60
2018-04-26T22:12:02.170Z,8.60
2018-04-26T22:14:29.850Z,8.60
2018-04-26T22:16:58.241Z,8.50
2018-04-26T22:19:25.890Z,8.50
2018-04-26T22:21:54.335Z,8.40
2018-04-26T22:24:21.970Z,8.40
2018-04-26T22:26:49.647Z,8.30
2018-04-26T22:29:17.298Z,8.20
2018-04-26T22:31:44.964Z,8.10
2018-04-26T22:34:12.631Z,8.20
2018-04-26T22:36:40.290Z,8.10
2018-04-26T22:39:07.920Z,8.10
2018-04-26T22:41:35.599Z,8.00
2018-04-26T22:44:03.262Z,8.00
2018-04-26T22:46:30.885Z,7.90
2018-04-26T22:48:58.535Z,7.80
2018-04-26T22:51:26.191Z,7.70
2018-04-26T22:53:54.579Z,7.60
2018-04-26T22:56:22.229Z,7.50
2018-04-26T22:58:50.638Z,7.40
2018-04-26T23:01:18.291Z,7.40
2018-04-26T23:03:46.016Z,7.30
2018-04-26T23:06:14.463Z,7.30
2018-04-26T23:08:42.091Z,7.20
2018-04-26T23:11:09.754Z,7.20
2018-04-26T23:13:37.420Z,7.20
2018-04-26T23:16:05.042Z,7.20
2018-04-26T23:18:33.462Z,7.10
2018-04-26T23:21:01.115Z,7.10
2018-04-26T23:23:28.735Z,7.10
2018-04-26T23:25:57.154Z,7.10
2018-04-26T23:28:24.816Z,7.10
2018-04-26T23:30:52.439Z,7.20
2018-04-26T23:33:20.877Z,7.10
2018-04-26T23:35:48.543Z,7.10
2018-04-26T23:38:16.239Z,7.10
2018-04-26T23:40:44.665Z,7.00
2018-04-26T23:43:12.344Z,7.00
2018-04-26T23:45:39.950Z,6.90
2018-04-26T23:48:07.628Z,7.00
2018-04-26T23:50:35.301Z,6.90
2018-04-26T23:53:02.915Z,6.90
2018-04-26T23:55:31.350Z,6.80
2018-04-26T23:57:59.011Z,6.80
